Ana Sayfa
METAR-TAF:

METAR-TAF

Havaalanları :

Mykonos, Yunanistan

Enlem: 37-26-09N, Boylam: 025-20-45E, yükseklik: 123 m

Güncel hava durumu gözlemi

Rapor saat 19:20 UTC de 19 dakika önce yapıldı.
Sakin rüzgar
Sıcaklık 20°C
Nem 73%
Basınç 1018 hPa
Görüş mesafesi: 9000 m
2000 ft yükseklikte az bulutlu

METAR: LGMK 181920Z 00000KT 9000 FEW020 20/15 Q1018

Saat: 22:39 (19:39 UTC)

Tahmin

Rapor saat 17:00 UTC de 2 saat ve 39 dakika önce yapıldı.
Ayın 18'si saat 18 UTC'den ayın 19'si saat 03 UTC'ye kadar geçerli Tahmin
Rüzgar kuzey/kuzeydoğudan 6 kt
Görüş mesafesi: 9000 m
1500 ft yükseklikte az bulutlu
3000 ft yükseklikte parçalı çok bulutlu

TAF: LGMK 181700Z 1818/1903 03006KT 9000 FEW015 BKN030

4.000'den fazla havaalanı için hava durumu gözlemleri ve tahminleri (METAR ve TAF raporları).

Kullanılabilir istasyonlar harita üzerinde sarı ve kırmızı noktalarla gösterilir.

İstasyonun adını görmek için fareyi noktanın üzerinde gezdirin.

Sonrasında hava gözlem ve tahminlerini görmek için tıklayın.

Haritayı değiştirmek için: yaklaştırmak için siyah artı işaretli yeşil düğmeye ve uzaklaştırmak için de eksi işaretli düğmeye hızla tıklayın; bitişik haritalar için yeşil okları kullanın.


METAR-TAF: